Time;durP1;ratioP1;P1;durP2;ratioP2;P2;SDS_P1;SDS_P2;PMS_P1;PMS_P2;Temp;Humidity;BMP_temperature;BMP_pressure;BME280_temperature;BME280_humidity;BME280_pressure;Samples;Min_cycle;Max_cycle;Signal;HPM_P1;HPM_P2
2021/08/20 00:01:41;;;;;;;6.28;2.58;;;;;;;16.93;95.56;96644.19;5001771;28;20053;-64
2021/08/20 00:04:07;;;;;;;5.55;2.58;;;;;;;16.93;96.05;96653.28;4996024;28;20054;-64
2021/08/20 00:06:33;;;;;;;5.47;2.65;;;;;;;16.94;96.58;96646.56;5000314;28;20038;-64
2021/08/20 00:08:58;;;;;;;6.28;2.80;;;;;;;16.92;97.20;96643.38;5001836;28;20049;-64
2021/08/20 00:11:24;;;;;;;4.97;2.70;;;;;;;17.23;96.09;96654.53;4994840;28;20814;-64
2021/08/20 00:13:49;;;;;;;5.38;2.78;;;;;;;17.42;94.32;96653.16;4999842;28;20041;-64
2021/08/20 00:16:14;;;;;;;7.47;2.42;;;;;;;17.49;92.40;96649.53;4996972;28;20050;-64
2021/08/20 00:18:40;;;;;;;6.00;2.53;;;;;;;17.19;93.04;96649.03;5000677;28;20049;-64
2021/08/20 00:21:05;;;;;;;5.80;2.60;;;;;;;17.00;94.93;96653.22;4984847;28;20038;-63
2021/08/20 00:23:31;;;;;;;5.85;2.42;;;;;;;16.82;96.02;96653.34;4988004;28;20045;-65
2021/08/20 00:25:56;;;;;;;6.55;2.88;;;;;;;16.59;96.87;96656.69;4999656;28;20050;-64
2021/08/20 00:28:21;;;;;;;6.50;2.65;;;;;;;16.48;97.72;96647.72;4996717;28;20058;-64
2021/08/20 00:30:47;;;;;;;8.45;3.00;;;;;;;16.32;98.53;96650.19;4994342;28;20514;-63
2021/08/20 00:33:13;;;;;;;5.07;2.92;;;;;;;16.23;99.71;96656.19;5000323;28;20041;-64
2021/08/20 00:35:39;;;;;;;4.68;3.05;;;;;;;16.16;99.59;96650.69;4994735;28;20084;-64
2021/08/20 00:38:04;;;;;;;5.32;2.65;;;;;;;16.13;99.08;96655.03;4988863;28;20084;-65
2021/08/20 00:40:30;;;;;;;4.30;2.70;;;;;;;16.17;99.83;96653.06;4998420;28;20065;-64
2021/08/20 00:42:56;;;;;;;6.20;2.90;;;;;;;16.21;100.00;96653.81;4999757;28;20058;-64
2021/08/20 00:45:21;;;;;;;5.38;3.30;;;;;;;16.13;99.73;96655.03;4993249;28;20045;-64
2021/08/20 00:47:47;;;;;;;5.32;2.85;;;;;;;16.10;99.96;96652.28;5000956;28;20053;-63
2021/08/20 00:50:12;;;;;;;4.90;2.97;;;;;;;16.05;99.82;96645.25;4996267;28;20045;-64
2021/08/20 00:52:38;;;;;;;5.15;2.90;;;;;;;16.07;99.71;96655.88;5000667;28;20049;-63
2021/08/20 00:55:05;;;;;;;4.05;2.35;;;;;;;16.07;99.93;96642.84;4987456;28;20081;-64
2021/08/20 00:57:31;;;;;;;5.13;2.67;;;;;;;16.13;100.00;96643.22;4999336;28;20046;-64
2021/08/20 00:59:57;;;;;;;6.18;2.40;;;;;;;16.20;100.00;96638.41;4999860;28;20042;-64
2021/08/20 01:02:22;;;;;;;4.03;2.40;;;;;;;16.47;99.43;96637.06;4986905;28;20481;-64
2021/08/20 01:04:48;;;;;;;4.93;3.03;;;;;;;16.62;98.18;96635.75;4991355;28;20388;-64
2021/08/20 01:07:16;;;;;;;5.80;2.88;;;;;;;16.25;98.21;96640.75;4995232;28;20046;-63
2021/08/20 01:09:42;;;;;;;5.28;2.63;;;;;;;15.99;99.68;96635.78;5000010;28;20041;-64
2021/08/20 01:12:08;;;;;;;9.43;2.92;;;;;;;15.85;100.00;96636.69;4984726;28;20104;-63
2021/08/20 01:14:35;;;;;;;4.43;2.70;;;;;;;15.82;100.00;96637.47;5000344;28;20455;-64
2021/08/20 01:17:07;;;;;;;6.03;2.90;;;;;;;15.73;100.00;96634.34;5000671;28;20080;-64
2021/08/20 01:19:34;;;;;;;4.45;2.88;;;;;;;15.49;100.00;96631.28;5000243;28;20134;-63
2021/08/20 01:22:01;;;;;;;4.45;2.92;;;;;;;15.38;100.00;96638.84;4999831;28;20073;-64
2021/08/20 01:24:28;;;;;;;5.72;3.13;;;;;;;15.30;100.00;96640.81;4991345;28;20700;-64
2021/08/20 01:26:53;;;;;;;7.30;3.17;;;;;;;15.30;100.00;96635.28;4999007;28;20038;-64
2021/08/20 01:29:19;;;;;;;8.40;3.80;;;;;;;15.34;100.00;96635.28;4995700;28;20057;-64
2021/08/20 01:31:46;;;;;;;5.05;2.83;;;;;;;15.40;100.00;96641.97;5000361;28;20092;-64
2021/08/20 01:34:13;;;;;;;5.97;2.90;;;;;;;15.40;100.00;96642.75;4988740;28;20483;-64
2021/08/20 01:36:38;;;;;;;4.57;2.72;;;;;;;15.42;100.00;96645.13;5000507;28;20053;-66
2021/08/20 01:39:04;;;;;;;4.97;2.70;;;;;;;15.44;100.00;96639.97;4995813;28;20050;-65
2021/08/20 01:41:31;;;;;;;5.18;2.40;;;;;;;15.43;100.00;96638.41;5007838;28;20394;-65
2021/08/20 01:43:58;;;;;;;4.93;2.63;;;;;;;15.31;100.00;96639.63;5010231;28;20472;-65
2021/08/20 01:46:28;;;;;;;7.93;2.92;;;;;;;15.17;100.00;96639.69;5012203;28;20038;-65
2021/08/20 01:48:56;;;;;;;4.18;2.65;;;;;;;15.26;100.00;96637.28;5003122;28;20045;-66
2021/08/20 01:51:23;;;;;;;3.47;1.95;;;;;;;15.32;100.00;96629.38;5001255;28;20724;-65
2021/08/20 01:53:49;;;;;;;7.30;2.38;;;;;;;15.42;100.00;96632.09;4997118;28;20049;-66
2021/08/20 01:56:22;;;;;;;5.25;2.53;;;;;;;15.55;100.00;96628.91;4994946;28;20042;-65
2021/08/20 01:58:55;;;;;;;5.65;2.88;;;;;;;15.59;100.00;96633.22;4982712;28;20041;-65
2021/08/20 02:01:21;;;;;;;6.65;2.67;;;;;;;15.58;100.00;96631.66;4993527;28;20475;-65
2021/08/20 02:03:46;;;;;;;5.03;2.30;;;;;;;15.54;100.00;96625.38;4998641;28;20108;-65
2021/08/20 02:06:12;;;;;;;4.03;2.30;;;;;;;15.53;100.00;96640.34;4994854;28;20518;-65
2021/08/20 02:08:38;;;;;;;6.05;2.50;;;;;;;15.46;100.00;96634.84;5003580;28;20049;-64
2021/08/20 02:11:03;;;;;;;4.63;2.17;;;;;;;15.37;100.00;96629.75;5018149;28;20037;-65
2021/08/20 02:13:29;;;;;;;4.78;2.20;;;;;;;15.32;100.00;96630.16;4989957;28;20069;-65
2021/08/20 02:15:54;;;;;;;4.70;2.28;;;;;;;15.25;100.00;96631.00;5005238;28;20089;-65
2021/08/20 02:18:20;;;;;;;9.70;2.60;;;;;;;15.23;100.00;96632.56;4997989;28;20106;-65
2021/08/20 02:20:46;;;;;;;5.05;2.58;;;;;;;15.18;100.00;96632.97;4988010;28;20030;-64
2021/08/20 02:23:12;;;;;;;4.95;2.50;;;;;;;15.19;100.00;96637.31;4999343;28;20053;-65
2021/08/20 02:25:38;;;;;;;3.97;1.90;;;;;;;15.24;100.00;96640.44;5005157;28;20046;-65
2021/08/20 02:28:04;;;;;;;4.50;2.28;;;;;;;15.21;100.00;96646.75;5002115;28;20041;-65
2021/08/20 02:30:30;;;;;;;6.63;2.72;;;;;;;15.22;100.00;96642.03;5000641;28;20037;-65
2021/08/20 02:32:56;;;;;;;7.13;2.65;;;;;;;15.21;99.77;96640.44;5002254;28;20053;-65
2021/08/20 02:35:26;;;;;;;5.00;2.65;;;;;;;15.30;99.80;96646.31;4994225;28;20057;-64
2021/08/20 02:37:54;;;;;;;4.90;2.50;;;;;;;15.35;99.87;96637.66;5004596;28;20045;-65
2021/08/20 02:40:20;;;;;;;3.45;2.30;;;;;;;15.25;99.91;96643.97;4998601;28;20046;-64
2021/08/20 02:42:45;;;;;;;6.50;2.85;;;;;;;15.02;100.00;96644.44;5002855;28;20111;-65
2021/08/20 02:45:11;;;;;;;4.47;2.70;;;;;;;14.87;100.00;96638.97;4987725;28;20144;-65
2021/08/20 02:47:38;;;;;;;3.60;2.38;;;;;;;14.86;100.00;96636.59;5002823;28;20390;-65
2021/08/20 02:50:04;;;;;;;4.57;2.28;;;;;;;14.96;100.00;96641.28;5000440;28;20037;-65
2021/08/20 02:52:29;;;;;;;7.18;2.22;;;;;;;15.10;100.00;96641.25;5003345;28;20441;-65
2021/08/20 02:54:55;;;;;;;5.47;2.90;;;;;;;15.16;100.00;96633.38;4984158;28;20072;-64
2021/08/20 02:57:27;;;;;;;3.50;2.20;;;;;;;15.22;100.00;96637.28;4998609;28;20049;-64
2021/08/20 02:59:54;;;;;;;4.60;2.25;;;;;;;15.34;100.00;96640.81;5004252;28;20046;-65
2021/08/20 03:02:19;;;;;;;4.97;2.45;;;;;;;15.43;100.00;96633.69;4996500;28;20046;-65
2021/08/20 03:04:45;;;;;;;4.15;2.35;;;;;;;15.42;99.04;96639.59;5002587;28;20057;-65
2021/08/20 03:07:11;;;;;;;6.38;2.78;;;;;;;15.51;99.25;96634.44;4994519;28;20050;-65
2021/08/20 03:09:36;;;;;;;4.28;2.35;;;;;;;15.68;98.44;96627.25;4994423;28;20041;-65
2021/08/20 03:12:02;;;;;;;3.72;2.05;;;;;;;15.75;97.47;96632.75;5000116;28;20042;-65
2021/08/20 03:14:28;;;;;;;3.42;2.17;;;;;;;15.76;97.32;96637.13;4996679;28;20129;-64
2021/08/20 03:16:57;;;;;;;7.55;2.50;;;;;;;15.70;97.24;96632.38;4997643;28;20145;-65
2021/08/20 03:19:22;;;;;;;8.83;3.00;;;;;;;15.63;97.32;96627.69;4997387;28;20854;-66
2021/08/20 03:21:48;;;;;;;5.05;2.75;;;;;;;15.65;98.16;96631.63;5000686;28;20045;-66
2021/08/20 03:24:14;;;;;;;6.18;3.83;;;;;;;15.68;98.35;96641.06;4996294;28;20056;-66
2021/08/20 03:26:40;;;;;;;8.38;3.78;;;;;;;15.67;98.29;96633.97;4994338;28;20499;-65
2021/08/20 03:29:05;;;;;;;10.05;4.45;;;;;;;15.64;98.56;96630.03;4985265;28;20050;-67
2021/08/20 03:31:31;;;;;;;12.43;6.13;;;;;;;15.65;98.73;96634.38;5001153;28;20038;-65
2021/08/20 03:33:56;;;;;;;9.23;5.72;;;;;;;15.63;98.59;96638.72;4999351;28;20085;-66
2021/08/20 03:36:23;;;;;;;11.70;6.15;;;;;;;15.62;98.65;96635.16;4995687;28;20190;-66
2021/08/20 03:38:50;;;;;;;10.57;6.18;;;;;;;15.55;98.47;96635.19;4999957;28;20065;-67
2021/08/20 03:41:20;;;;;;;12.68;6.40;;;;;;;15.55;98.92;96631.66;4994790;28;20128;-66
2021/08/20 03:43:46;;;;;;;11.10;6.03;;;;;;;15.55;98.87;96631.66;4995012;28;20104;-65
2021/08/20 03:46:12;;;;;;;12.27;6.25;;;;;;;15.61;99.00;96633.63;4993181;28;20499;-66
2021/08/20 03:48:38;;;;;;;15.60;7.07;;;;;;;15.65;98.59;96639.13;5001887;28;20065;-66
2021/08/20 03:51:04;;;;;;;13.27;6.93;;;;;;;15.70;97.84;96638.69;4993118;28;20062;-63
2021/08/20 03:53:30;;;;;;;12.50;5.97;;;;;;;15.83;97.95;96644.59;4993370;28;20042;-66
2021/08/20 03:55:56;;;;;;;14.65;7.22;;;;;;;15.86;97.13;96650.09;4991425;28;20052;-66
2021/08/20 03:58:21;;;;;;;19.70;9.27;;;;;;;15.87;96.80;96645.34;4995638;28;20052;-66
2021/08/20 04:00:52;;;;;;;20.70;9.85;;;;;;;15.84;96.43;96649.69;4997383;28;20390;-66
2021/08/20 04:03:20;;;;;;;13.35;8.70;;;;;;;15.74;97.58;96649.72;4985962;28;20487;-66
2021/08/20 04:05:46;;;;;;;13.85;8.35;;;;;;;15.74;97.79;96656.06;4990959;28;20115;-66
2021/08/20 04:08:13;;;;;;;13.85;7.97;;;;;;;15.68;97.54;96652.91;4987674;28;20050;-65
2021/08/20 04:10:41;;;;;;;18.25;8.40;;;;;;;15.74;98.33;96655.25;4996468;28;20129;-66
2021/08/20 04:13:08;;;;;;;15.02;8.82;;;;;;;15.66;97.92;96657.25;4987796;28;20100;-66
2021/08/20 04:15:33;;;;;;;17.63;8.85;;;;;;;15.54;98.27;96660.44;4993102;28;20541;-66
2021/08/20 04:17:59;;;;;;;16.55;7.72;;;;;;;15.43;99.08;96655.75;4991749;28;20084;-66
2021/08/20 04:20:24;;;;;;;13.02;7.20;;;;;;;15.45;99.59;96656.16;4979966;28;20053;-67
2021/08/20 04:22:50;;;;;;;12.18;6.97;;;;;;;15.51;99.91;96661.25;4994179;28;20046;-66
2021/08/20 04:25:16;;;;;;;12.95;6.40;;;;;;;15.55;99.77;96667.53;4986679;28;20186;-66
2021/08/20 04:27:41;;;;;;;10.98;6.00;;;;;;;15.60;99.64;96669.91;4992451;28;20045;-66
2021/08/20 04:30:07;;;;;;;16.88;9.60;;;;;;;15.37;100.00;96664.84;4986773;28;20038;-65
2021/08/20 04:32:32;;;;;;;18.42;10.27;;;;;;;15.23;100.00;96679.47;4988321;28;20042;-66
2021/08/20 04:34:58;;;;;;;17.33;9.70;;;;;;;15.25;100.00;96675.13;4992121;28;20046;-66
2021/08/20 04:37:23;;;;;;;21.38;11.07;;;;;;;15.27;100.00;96675.50;4989087;28;20152;-66
2021/08/20 04:39:50;;;;;;;20.65;11.25;;;;;;;15.25;100.00;96680.66;4994282;28;20133;-66
2021/08/20 04:42:15;;;;;;;19.45;9.93;;;;;;;15.34;100.00;96682.19;4984508;28;20049;-66
2021/08/20 04:44:41;;;;;;;18.50;10.10;;;;;;;15.48;100.00;96684.91;4997882;28;20553;-66
2021/08/20 04:47:06;;;;;;;18.75;8.88;;;;;;;15.56;100.00;96685.69;4993442;28;20111;-65
2021/08/20 04:49:31;;;;;;;13.57;8.15;;;;;;;15.42;100.00;96692.03;4993171;28;20048;-66
2021/08/20 04:51:57;;;;;;;17.45;8.02;;;;;;;15.22;100.00;96695.22;4996965;28;20049;-66
2021/08/20 04:54:22;;;;;;;13.57;8.13;;;;;;;15.22;100.00;96688.94;4994088;28;20444;-66
2021/08/20 04:56:49;;;;;;;12.48;6.93;;;;;;;15.29;100.00;96691.69;4991218;28;20064;-67
2021/08/20 04:59:15;;;;;;;13.55;7.25;;;;;;;15.43;100.00;96694.41;4995015;28;20447;-66
2021/08/20 05:01:41;;;;;;;12.15;6.70;;;;;;;15.53;100.00;96695.53;4995091;28;20039;-66
2021/08/20 05:04:06;;;;;;;13.95;6.40;;;;;;;15.51;100.00;96697.91;4993964;28;20081;-67
2021/08/20 05:06:32;;;;;;;11.95;6.05;;;;;;;15.58;100.00;96692.38;5000612;28;20112;-67
2021/08/20 05:08:58;;;;;;;10.50;5.47;;;;;;;15.69;100.00;96695.09;5000317;28;20046;-67
2021/08/20 05:11:23;;;;;;;14.52;6.65;;;;;;;15.79;100.00;96699.03;4986130;28;20587;-67
2021/08/20 05:13:49;;;;;;;10.75;5.28;;;;;;;15.90;100.00;96697.03;4992040;28;20383;-66
2021/08/20 05:16:14;;;;;;;8.80;5.05;;;;;;;16.08;99.52;96705.22;4993764;28;20046;-66
2021/08/20 05:18:40;;;;;;;10.18;5.32;;;;;;;16.36;98.74;96698.72;5000840;28;20092;-66
2021/08/20 05:21:05;;;;;;;10.18;4.97;;;;;;;16.61;97.11;96703.28;4994777;28;20045;-66
2021/08/20 05:23:30;;;;;;;7.60;4.22;;;;;;;16.80;95.01;96705.53;4991648;28;20049;-66
2021/08/20 05:25:56;;;;;;;7.55;4.28;;;;;;;16.99;93.86;96706.97;4978145;28;20637;-66
2021/08/20 05:28:21;;;;;;;7.47;4.20;;;;;;;17.29;92.11;96713.03;5026593;28;20220;-65
2021/08/20 05:30:46;;;;;;;7.95;4.57;;;;;;;17.57;90.23;96714.69;4998621;28;20502;-65
2021/08/20 05:33:12;;;;;;;7.30;4.57;;;;;;;18.10;87.10;96723.59;4985796;28;20052;-65
2021/08/20 05:35:38;;;;;;;8.43;4.15;;;;;;;18.52;82.71;96721.44;5000357;28;20100;-65
2021/08/20 05:38:04;;;;;;;9.45;4.50;;;;;;;18.77;81.69;96721.06;4994185;28;20100;-65
2021/08/20 05:40:30;;;;;;;26.30;4.90;;;;;;;19.03;80.95;96725.03;4991487;28;20037;-65
2021/08/20 05:42:55;;;;;;;8.50;4.15;;;;;;;19.03;79.33;96725.03;4992828;28;20085;-64
2021/08/20 05:45:20;;;;;;;8.20;3.50;;;;;;;19.30;78.88;96726.94;4992471;28;20061;-65
2021/08/20 05:47:46;;;;;;;9.27;4.15;;;;;;;19.48;78.50;96724.66;4995277;28;20398;-65
2021/08/20 05:50:12;;;;;;;6.18;3.30;;;;;;;20.64;73.81;96722.31;4976242;28;20481;-65
2021/08/20 05:52:38;;;;;;;6.20;3.20;;;;;;;21.33;70.56;96717.41;4996101;28;20127;-65
2021/08/20 05:55:08;;;;;;;6.38;3.53;;;;;;;22.21;66.82;96723.00;5021917;28;20042;-65
2021/08/20 05:57:34;;;;;;;5.82;2.78;;;;;;;23.09;65.86;96719.94;5004056;28;20289;-66
2021/08/20 05:59:59;;;;;;;5.57;2.78;;;;;;;23.80;59.61;96721.53;4996126;28;20053;-66
2021/08/20 06:02:25;;;;;;;4.60;2.40;;;;;;;25.34;54.42;96718.38;4997340;28;20053;-66
2021/08/20 06:04:50;;;;;;;4.70;2.17;;;;;;;25.12;55.32;96715.69;5002126;28;20050;-66
2021/08/20 06:07:16;;;;;;;6.25;2.78;;;;;;;24.93;57.28;96722.47;4995184;28;20068;-66
2021/08/20 06:09:41;;;;;;;4.40;2.78;;;;;;;26.76;52.06;96728.53;5001018;28;20042;-66
2021/08/20 06:12:07;;;;;;;8.48;2.33;;;;;;;28.76;45.35;96724.34;4999159;28;20042;-67
2021/08/20 06:14:33;;;;;;;4.90;2.60;;;;;;;28.90;43.34;96734.00;4996921;28;20037;-67
2021/08/20 06:16:59;;;;;;;4.40;2.40;;;;;;;29.01;42.54;96733.41;5004074;28;20049;-67
2021/08/20 06:19:26;;;;;;;7.32;3.15;;;;;;;28.40;43.05;96724.25;4996706;28;20107;-66
2021/08/20 06:21:53;;;;;;;4.13;2.08;;;;;;;27.68;44.70;96720.81;4995749;28;20580;-67
2021/08/20 06:24:19;;;;;;;5.22;2.50;;;;;;;27.43;46.45;96732.09;4999231;28;20485;-67
2021/08/20 06:26:46;;;;;;;4.85;2.25;;;;;;;29.14;43.09;96725.41;5005385;28;20053;-66
2021/08/20 06:29:21;;;;;;;6.95;2.42;;;;;;;28.94;43.13;96721.28;5006926;28;20065;-66
2021/08/20 06:31:48;;;;;;;4.82;2.25;;;;;;;29.00;42.27;96729.06;4996003;28;20069;-67
2021/08/20 06:34:14;;;;;;;4.53;2.60;;;;;;;30.22;39.55;96730.34;4993759;28;20041;-67
2021/08/20 06:36:39;;;;;;;4.45;2.28;;;;;;;30.10;39.00;96726.63;4994389;28;20045;-66
2021/08/20 06:39:05;;;;;;;4.85;2.05;;;;;;;29.66;39.68;96731.25;4987946;28;20042;-67
2021/08/20 06:41:30;;;;;;;6.35;2.10;;;;;;;29.73;40.88;96730.81;5018798;28;20038;-66
2021/08/20 06:43:56;;;;;;;5.32;2.20;;;;;;;30.65;38.47;96728.44;5002905;28;20407;-65
2021/08/20 06:46:21;;;;;;;5.05;2.10;;;;;;;30.38;38.25;96735.41;4993341;28;20797;-67
2021/08/20 06:48:46;;;;;;;4.45;2.15;;;;;;;29.66;39.76;96751.00;5002598;28;20053;-67
2021/08/20 06:51:13;;;;;;;6.97;2.45;;;;;;;27.59;42.33;96741.38;4996356;28;20042;-66
2021/08/20 06:53:39;;;;;;;6.18;2.90;;;;;;;26.07;47.97;96736.50;4994385;28;20042;-63
2021/08/20 06:56:06;;;;;;;4.50;2.50;;;;;;;27.87;45.22;96741.16;4990362;28;20038;-65
2021/08/20 06:58:31;;;;;;;4.10;2.40;;;;;;;28.37;43.14;96732.88;4993973;28;20034;-64
2021/08/20 07:00:57;;;;;;;5.35;3.22;;;;;;;28.47;42.57;96737.16;5000833;28;20057;-64
2021/08/20 07:03:22;;;;;;;6.43;2.85;;;;;;;26.08;46.34;96742.88;4993893;28;20251;-64
2021/08/20 07:05:47;;;;;;;4.97;2.67;;;;;;;26.87;46.53;96740.03;4992940;28;20049;-64
2021/08/20 07:08:13;;;;;;;5.85;2.50;;;;;;;26.47;47.29;96740.28;4986978;28;20388;-65
2021/08/20 07:10:39;;;;;;;7.15;2.97;;;;;;;28.59;43.02;96741.75;5002513;28;20491;-65
2021/08/20 07:13:04;;;;;;;4.50;2.88;;;;;;;29.32;39.11;96739.28;4995022;28;20080;-63
2021/08/20 07:15:29;;;;;;;6.90;3.65;;;;;;;30.02;38.36;96737.59;4987660;28;20100;-65
2021/08/20 07:17:55;;;;;;;7.25;3.38;;;;;;;29.09;40.16;96745.84;4997303;28;20145;-65
2021/08/20 07:20:20;;;;;;;5.88;3.25;;;;;;;29.37;39.81;96743.47;4989372;28;20838;-65
2021/08/20 07:22:45;;;;;;;6.47;3.40;;;;;;;28.69;41.63;96753.69;4996509;28;20786;-64
2021/08/20 07:25:11;;;;;;;6.07;3.67;;;;;;;25.23;49.79;96750.88;4992998;28;20184;-64
2021/08/20 07:27:37;;;;;;;6.75;3.80;;;;;;;26.49;46.82;96751.88;5002459;28;20046;-64
2021/08/20 07:30:04;;;;;;;5.30;3.28;;;;;;;25.82;50.14;96751.63;5015129;28;20052;-63
2021/08/20 07:32:30;;;;;;;6.72;3.67;;;;;;;25.82;49.83;96756.44;4991015;28;20046;-64
2021/08/20 07:34:55;;;;;;;8.20;4.20;;;;;;;26.23;48.19;96751.44;4994507;28;20046;-65
2021/08/20 07:37:21;;;;;;;6.03;3.33;;;;;;;26.88;46.99;96746.44;4993411;28;20089;-65
2021/08/20 07:39:46;;;;;;;8.55;4.15;;;;;;;23.08;57.66;96754.69;4993851;28;20045;-65
2021/08/20 07:42:11;;;;;;;8.30;4.10;;;;;;;23.23;57.77;96753.00;4994834;28;20388;-65
2021/08/20 07:44:37;;;;;;;9.05;4.68;;;;;;;23.53;57.73;96758.38;4991007;28;20049;-64
2021/08/20 07:47:03;;;;;;;8.82;4.65;;;;;;;24.21;55.06;96759.56;4998162;28;20049;-66
2021/08/20 07:49:29;;;;;;;7.32;4.68;;;;;;;23.13;58.31;96754.13;4995461;28;20499;-65
2021/08/20 07:51:56;;;;;;;7.30;4.10;;;;;;;24.01;56.15;96750.75;4987988;28;20045;-65
2021/08/20 07:54:22;;;;;;;7.20;4.10;;;;;;;23.06;58.37;96754.34;5005798;28;22558;-65
2021/08/20 07:56:48;;;;;;;7.97;4.10;;;;;;;22.89;59.08;96748.84;5007326;28;20072;-65
2021/08/20 07:59:13;;;;;;;7.78;4.07;;;;;;;24.75;54.11;96751.97;4992109;28;20046;-65
2021/08/20 08:01:39;;;;;;;6.65;3.80;;;;;;;25.65;52.08;96744.75;4994194;28;20081;-65
2021/08/20 08:04:04;;;;;;;7.50;4.60;;;;;;;24.05;55.71;96745.78;4992880;28;20046;-66
2021/08/20 08:06:30;;;;;;;8.82;4.15;;;;;;;23.31;57.82;96744.38;5000760;28;20041;-64
2021/08/20 08:08:56;;;;;;;7.15;4.05;;;;;;;24.80;54.54;96745.00;5003760;28;20077;-65
2021/08/20 08:11:22;;;;;;;7.38;4.15;;;;;;;26.58;48.80;96737.78;4991781;28;20081;-64
2021/08/20 08:13:47;;;;;;;7.85;3.83;;;;;;;28.12;44.35;96745.50;4994730;28;20049;-64
2021/08/20 08:16:13;;;;;;;8.45;3.97;;;;;;;26.76;47.77;96741.78;5016442;28;20046;-65
2021/08/20 08:18:39;;;;;;;9.35;4.85;;;;;;;26.28;47.74;96751.59;5001488;28;20123;-65
2021/08/20 08:21:04;;;;;;;8.60;3.97;;;;;;;28.46;44.25;96751.72;4996260;28;20053;-65
2021/08/20 08:23:30;;;;;;;7.03;4.07;;;;;;;28.04;44.10;96747.91;5000563;28;20060;-64
2021/08/20 08:25:55;;;;;;;7.18;3.83;;;;;;;29.21;41.90;96756.06;4999237;28;20133;-64
2021/08/20 08:28:22;;;;;;;6.88;3.55;;;;;;;29.27;41.66;96745.63;4994098;28;20046;-66
2021/08/20 08:30:49;;;;;;;8.10;3.63;;;;;;;28.20;43.16;96752.31;4996085;28;20144;-64
2021/08/20 08:33:15;;;;;;;5.50;3.38;;;;;;;29.40;40.81;96752.97;4995685;28;20068;-64
2021/08/20 08:35:41;;;;;;;9.32;4.20;;;;;;;28.67;42.02;96761.84;5000285;28;20096;-65
2021/08/20 08:38:10;;;;;;;6.43;3.85;;;;;;;25.13;51.09;96764.84;4996102;28;20034;-63
2021/08/20 08:40:37;;;;;;;7.97;3.97;;;;;;;26.64;48.36;96754.81;5001179;28;20038;-65
2021/08/20 08:43:07;;;;;;;6.68;3.30;;;;;;;29.05;42.65;96756.56;5002389;28;20057;-65
2021/08/20 08:45:33;;;;;;;8.82;3.95;;;;;;;28.29;45.30;96757.06;5007557;28;20104;-63
2021/08/20 08:48:02;;;;;;;7.40;3.40;;;;;;;28.84;44.13;96756.47;5002569;28;20045;-64
2021/08/20 08:50:27;;;;;;;6.75;3.75;;;;;;;28.98;42.87;96760.53;4996799;28;20136;-64
2021/08/20 08:52:53;;;;;;;6.65;3.33;;;;;;;30.08;41.07;96763.84;5001090;28;20134;-62
2021/08/20 08:55:19;;;;;;;5.13;3.30;;;;;;;30.33;41.15;96757.94;4995689;28;20077;-64
2021/08/20 08:57:44;;;;;;;8.90;4.35;;;;;;;30.00;41.60;96757.09;4999857;28;20073;-64
2021/08/20 09:00:11;;;;;;;9.02;4.20;;;;;;;28.98;43.44;96761.31;4986906;28;20042;-62
2021/08/20 09:02:36;;;;;;;7.13;4.25;;;;;;;28.70;43.60;96766.53;4999342;28;20037;-64
2021/08/20 09:05:12;;;;;;;6.97;4.05;;;;;;;28.79;44.50;96762.81;5000797;28;20064;-63
2021/08/20 09:07:38;;;;;;;5.85;3.50;;;;;;;28.34;45.01;96764.84;4996315;28;20048;-63
2021/08/20 09:10:20;;;;;;;7.22;4.20;;;;;;;29.15;43.08;96761.63;4993964;28;20045;-63
2021/08/20 09:12:58;;;;;;;7.63;4.57;;;;;;;28.42;44.42;96760.38;5000729;28;20129;-64
2021/08/20 09:15:26;;;;;;;8.23;4.40;;;;;;;27.91;45.59;96756.63;4991598;28;20562;-64
2021/08/20 09:17:55;;;;;;;6.97;3.63;;;;;;;27.77;45.92;96760.16;5001180;28;20049;-64
2021/08/20 09:20:28;;;;;;;7.35;3.95;;;;;;;28.88;43.36;96759.91;4994072;28;20499;-65
2021/08/20 09:22:56;;;;;;;8.23;3.97;;;;;;;29.53;42.54;96759.03;4999694;28;20042;-64
2021/08/20 09:25:44;;;;;;;5.43;3.55;;;;;;;29.43;41.97;96754.81;4995642;28;20706;-64
2021/08/20 09:28:25;;;;;;;8.57;4.03;;;;;;;28.71;43.94;96756.03;4993924;28;20041;-63
2021/08/20 09:30:53;;;;;;;6.60;3.92;;;;;;;29.33;42.74;96756.97;4999550;28;20069;-65
2021/08/20 09:33:21;;;;;;;7.55;4.10;;;;;;;29.34;42.49;96755.72;4992933;28;20068;-65
2021/08/20 09:35:58;;;;;;;7.53;3.83;;;;;;;29.30;42.55;96747.47;5000733;28;20038;-63
2021/08/20 09:38:24;;;;;;;6.47;3.80;;;;;;;29.50;42.98;96752.34;4994246;28;20645;-65
2021/08/20 09:40:54;;;;;;;14.13;9.18;;;;;;;30.56;39.84;96750.44;5001241;28;20038;-64
2021/08/20 09:43:30;;;;;;;11.88;4.25;;;;;;;30.41;40.67;96750.56;4977527;28;20050;-65
2021/08/20 09:46:00;;;;;;;6.32;3.53;;;;;;;29.76;41.69;96754.47;5000674;28;20147;-63
2021/08/20 09:48:40;;;;;;;4.70;2.83;;;;;;;30.04;42.05;96743.50;4995922;28;20038;-63
2021/08/20 09:51:06;;;;;;;12.52;4.40;;;;;;;29.74;41.95;96748.53;4990986;28;20046;-64
2021/08/20 09:53:31;;;;;;;9.00;3.65;;;;;;;29.28;41.89;96741.53;4996096;28;20131;-63
2021/08/20 09:56:04;;;;;;;9.02;3.95;;;;;;;29.19;42.71;96743.69;4998467;28;20383;-64
2021/08/20 09:58:34;;;;;;;6.65;3.50;;;;;;;28.92;44.46;96748.44;4999257;28;20046;-62
2021/08/20 10:01:01;;;;;;;7.18;4.15;;;;;;;29.08;44.90;96742.25;5000223;28;20034;-63
2021/08/20 10:03:28;;;;;;;7.90;3.33;;;;;;;29.34;43.49;96736.75;4995617;28;20046;-63
2021/08/20 10:05:56;;;;;;;8.52;3.75;;;;;;;29.53;42.91;96736.47;5000119;28;20096;-62
2021/08/20 10:08:23;;;;;;;6.97;3.58;;;;;;;29.05;43.70;96739.63;4994830;28;20715;-64
2021/08/20 10:10:49;;;;;;;5.60;3.13;;;;;;;28.97;43.38;96740.03;5004036;28;20041;-65
2021/08/20 10:13:16;;;;;;;9.05;3.40;;;;;;;29.05;43.37;96728.38;4977069;28;20141;-63
2021/08/20 10:15:43;;;;;;;5.95;2.70;;;;;;;29.38;43.27;96722.44;5000121;28;20042;-63
2021/08/20 10:18:15;;;;;;;5.80;3.30;;;;;;;29.28;41.13;96733.06;4993412;28;20042;-63
2021/08/20 10:20:41;;;;;;;6.35;3.35;;;;;;;28.72;46.00;96732.19;4999997;28;20049;-64
2021/08/20 10:23:11;;;;;;;10.60;4.15;;;;;;;28.57;46.09;96727.34;4992770;28;20475;-62
2021/08/20 10:25:38;;;;;;;6.05;3.65;;;;;;;28.60;45.74;96728.44;4996885;28;20060;-64
2021/08/20 10:28:05;;;;;;;8.85;3.83;;;;;;;28.74;43.84;96730.47;5039022;23;20052;-70
2021/08/20 10:30:32;;;;;;;6.88;3.30;;;;;;;28.85;43.47;96721.41;5036730;28;20037;-68
2021/08/20 10:33:05;;;;;;;6.97;3.53;;;;;;;29.24;42.75;96726.06;5039770;28;20041;-68
2021/08/20 10:35:49;;;;;;;5.15;3.10;;;;;;;29.31;42.20;96720.03;5040038;28;20041;-67
2021/08/20 10:38:48;;;;;;;4.57;2.63;;;;;;;28.55;44.37;96729.13;5038085;28;20041;-67
2021/08/20 10:41:21;;;;;;;6.22;3.13;;;;;;;28.96;42.87;96715.94;5034079;28;20120;-68
2021/08/20 10:43:48;;;;;;;4.88;2.72;;;;;;;29.66;41.04;96722.03;5042517;28;20048;-68
2021/08/20 10:46:35;;;;;;;5.40;2.35;;;;;;;28.70;41.87;96721.44;5035745;28;20485;-67
2021/08/20 10:49:17;;;;;;;5.72;2.33;;;;;;;28.66;42.78;96717.25;5042787;28;20580;-67
2021/08/20 10:54:26;;;;;;;6.25;2.88;;;;;;;29.36;40.53;96711.63;5031857;28;20155;-67
2021/08/20 10:56:52;;;;;;;5.72;2.55;;;;;;;28.86;39.90;96717.31;5043326;28;20053;-67
2021/08/20 10:59:39;;;;;;;5.60;2.40;;;;;;;28.98;40.28;96718.25;5036553;28;20059;-67
2021/08/20 11:02:20;;;;;;;5.68;3.10;;;;;;;28.37;41.62;96707.53;5035914;28;20045;-68
2021/08/20 11:05:11;;;;;;;5.53;2.38;;;;;;;28.64;41.34;96705.69;5042829;28;20045;-68
2021/08/20 11:07:39;;;;;;;4.38;2.20;;;;;;;28.87;40.90;96701.19;5038942;28;20498;-68
2021/08/20 11:10:10;;;;;;;8.85;3.25;;;;;;;28.58;40.49;96708.44;5037137;28;20048;-69
2021/08/20 11:12:42;;;;;;;3.58;2.15;;;;;;;28.18;41.86;96706.94;5042038;28;20037;-69
2021/08/20 11:15:23;;;;;;;6.43;2.80;;;;;;;27.43;42.68;96708.84;5036268;28;20037;-69
2021/08/20 11:17:48;;;;;;;5.07;2.58;;;;;;;26.45;45.37;96707.09;5042959;28;20032;-69
2021/08/20 11:20:24;;;;;;;5.72;2.53;;;;;;;26.12;47.92;96698.59;5036986;28;20106;-69
2021/08/20 11:23:04;;;;;;;10.55;4.25;;;;;;;26.61;46.15;96697.53;5039131;28;20512;-68
2021/08/20 11:25:51;;;;;;;6.00;2.85;;;;;;;26.63;45.11;96695.06;5040360;28;20064;-68
2021/08/20 11:28:34;;;;;;;8.18;3.28;;;;;;;26.85;46.47;96702.44;5035008;28;20086;-67
2021/08/20 11:31:11;;;;;;;5.97;3.05;;;;;;;27.17;43.62;96700.84;5037374;28;20448;-68
2021/08/20 11:33:45;;;;;;;6.40;2.38;;;;;;;27.22;43.16;96705.03;5036928;28;20029;-69